createdAt,value
2019-02-06T00:02:19.790Z,98523.30
2019-02-06T00:04:49.289Z,98523.14
2019-02-06T00:07:18.766Z,98513.41
2019-02-06T00:09:48.254Z,98512.27
2019-02-06T00:12:17.846Z,98512.94
2019-02-06T00:14:47.407Z,98519.00
2019-02-06T00:17:17.184Z,98517.58
2019-02-06T00:19:46.753Z,98520.13
2019-02-06T00:22:16.170Z,98528.30
2019-02-06T00:24:45.721Z,98525.88
2019-02-06T00:27:15.235Z,98522.03
2019-02-06T00:29:44.915Z,98519.66
2019-02-06T00:32:14.523Z,98525.41
2019-02-06T00:34:44.033Z,98523.63
2019-02-06T00:37:13.500Z,98529.41
2019-02-06T00:39:42.990Z,98530.19
2019-02-06T00:42:12.511Z,98529.42
2019-02-06T00:44:42.001Z,98527.63
2019-02-06T00:47:11.566Z,98527.79
2019-02-06T00:49:41.072Z,98532.28
2019-02-06T00:52:10.540Z,98535.16
2019-02-06T00:54:40.146Z,98536.44
2019-02-06T00:57:09.616Z,98536.92
2019-02-06T00:59:39.192Z,98533.23
2019-02-06T01:02:08.699Z,98540.28
2019-02-06T01:04:38.188Z,98537.22
2019-02-06T01:07:07.685Z,98533.41
2019-02-06T01:09:37.271Z,98536.58
2019-02-06T01:12:06.768Z,98532.11
2019-02-06T01:14:36.250Z,98529.25
2019-02-06T01:17:06.065Z,98521.08
2019-02-06T01:19:35.549Z,98525.72
2019-02-06T01:22:05.059Z,98522.22
2019-02-06T01:24:34.574Z,98523.31
2019-02-06T01:27:04.063Z,98517.89
2019-02-06T01:29:33.819Z,98521.56
2019-02-06T01:32:03.328Z,98523.63
2019-02-06T01:34:32.809Z,98523.64
2019-02-06T01:37:02.303Z,98518.36
2019-02-06T01:39:31.794Z,98523.80
2019-02-06T01:42:01.306Z,98518.38
2019-02-06T01:44:31.182Z,98519.82
2019-02-06T01:47:00.674Z,98515.48
2019-02-06T01:49:30.192Z,98512.28
2019-02-06T01:51:59.674Z,98510.70
2019-02-06T01:54:29.142Z,98509.56
2019-02-06T01:56:58.789Z,98505.07
2019-02-06T01:59:28.653Z,98504.11
2019-02-06T02:01:58.134Z,98509.39
2019-02-06T02:04:27.629Z,98512.27
2019-02-06T02:06:57.139Z,98507.79
2019-02-06T02:09:26.618Z,98503.64
2019-02-06T02:11:56.140Z,98507.41
2019-02-06T02:14:26.008Z,98505.48
2019-02-06T02:16:55.506Z,98503.48
2019-02-06T02:19:24.914Z,98506.94
2019-02-06T02:21:54.422Z,98502.59
2019-02-06T02:24:23.940Z,98501.34
2019-02-06T02:26:53.420Z,98498.44
2019-02-06T02:29:23.374Z,98502.09
2019-02-06T02:31:53.088Z,98495.22
2019-02-06T02:34:22.561Z,98499.23
2019-02-06T02:36:52.066Z,98497.16
2019-02-06T02:39:21.574Z,98499.05
2019-02-06T02:41:51.047Z,98494.58
2019-02-06T02:44:20.813Z,98494.76
2019-02-06T02:46:50.331Z,98496.17
2019-02-06T02:49:19.828Z,98496.64
2019-02-06T02:51:49.381Z,98496.03
2019-02-06T02:54:18.842Z,98495.23
2019-02-06T02:56:48.374Z,98498.88
2019-02-06T02:59:18.295Z,98504.80
2019-02-06T03:01:49.378Z,98502.74
2019-02-06T03:04:20.434Z,98508.80
2019-02-06T03:06:49.963Z,98507.69
2019-02-06T03:09:19.480Z,98510.88
2019-02-06T03:11:49.154Z,98515.03
2019-02-06T03:14:18.639Z,98513.45
2019-02-06T03:16:48.360Z,98517.73
2019-02-06T03:19:17.852Z,98518.70
2019-02-06T03:21:47.439Z,98524.28
2019-02-06T03:24:16.933Z,98520.31
2019-02-06T03:26:46.410Z,98525.66
2019-02-06T03:29:15.930Z,98519.58
2019-02-06T03:31:45.706Z,98526.75
2019-02-06T03:34:15.216Z,98522.08
2019-02-06T03:36:44.887Z,98520.62
2019-02-06T03:39:14.386Z,98521.09
2019-02-06T03:41:43.928Z,98521.89
2019-02-06T03:44:13.459Z,98523.33
2019-02-06T03:46:42.987Z,98525.73
2019-02-06T03:49:12.519Z,98523.97
2019-02-06T03:51:42.007Z,98527.15
2019-02-06T03:54:11.476Z,98527.12
2019-02-06T03:56:41.005Z,98529.05
2019-02-06T03:59:10.789Z,98523.92
2019-02-06T04:01:40.275Z,98525.52
2019-02-06T04:04:09.973Z,98525.34
2019-02-06T04:06:39.463Z,98520.09
2019-02-06T04:09:10.666Z,98524.88
2019-02-06T04:11:40.179Z,98523.13
2019-02-06T04:14:09.957Z,98526.14
2019-02-06T04:16:39.435Z,98524.53
2019-02-06T04:19:08.954Z,98526.30
2019-02-06T04:21:38.430Z,98529.16
2019-02-06T04:24:07.917Z,98532.19
2019-02-06T04:26:37.423Z,98529.47
2019-02-06T04:29:06.930Z,98531.23
2019-02-06T04:31:36.401Z,98525.83
2019-02-06T04:34:05.962Z,98529.78
2019-02-06T04:36:35.451Z,98525.48
2019-02-06T04:39:07.494Z,98534.75
2019-02-06T04:41:37.004Z,98530.95
2019-02-06T04:44:06.686Z,98535.25
2019-02-06T04:46:36.181Z,98533.34
2019-02-06T04:49:05.776Z,98532.39
2019-02-06T04:51:35.330Z,98531.73
2019-02-06T04:54:05.062Z,98524.38
2019-02-06T04:56:34.563Z,98525.16
2019-02-06T04:59:04.047Z,98527.04
2019-02-06T05:01:33.519Z,98527.64
2019-02-06T05:04:03.041Z,98537.37
2019-02-06T05:06:32.527Z,98530.20
2019-02-06T05:09:02.014Z,98535.34
2019-02-06T05:11:31.513Z,98545.13
2019-02-06T05:14:01.033Z,98540.20
2019-02-06T05:16:30.545Z,98543.20
2019-02-06T05:19:00.109Z,98544.40
2019-02-06T05:21:29.592Z,98543.06
2019-02-06T05:23:59.272Z,98547.19
2019-02-06T05:26:28.761Z,98547.61
2019-02-06T05:28:58.240Z,98541.22
2019-02-06T05:31:27.728Z,98547.09
2019-02-06T05:33:57.243Z,98545.03
2019-02-06T05:36:26.738Z,98548.07
2019-02-06T05:38:56.236Z,98542.34
2019-02-06T05:41:25.741Z,98548.88
2019-02-06T05:43:55.635Z,98554.01
2019-02-06T05:46:25.108Z,98554.09
2019-02-06T05:48:54.656Z,98548.84
2019-02-06T05:51:24.260Z,98550.45
2019-02-06T05:53:53.863Z,98554.14
2019-02-06T05:56:23.375Z,98560.39
2019-02-06T05:58:53.427Z,98561.23
2019-02-06T06:01:24.521Z,98563.63
2019-02-06T06:03:54.022Z,98564.12
2019-02-06T06:06:23.556Z,98573.86
2019-02-06T06:08:53.448Z,98576.47
2019-02-06T06:11:22.914Z,98574.63
2019-02-06T06:13:52.869Z,98582.05
2019-02-06T06:16:22.384Z,98583.48
2019-02-06T06:18:51.878Z,98582.52
2019-02-06T06:21:21.353Z,98582.53
2019-02-06T06:23:50.902Z,98592.09
2019-02-06T06:26:20.393Z,98592.27
2019-02-06T06:28:49.855Z,98595.61
2019-02-06T06:31:19.358Z,98594.83
2019-02-06T06:33:48.943Z,98594.17
2019-02-06T06:36:18.446Z,98597.05
2019-02-06T06:38:47.930Z,98594.34
2019-02-06T06:41:17.442Z,98599.94
2019-02-06T06:43:47.161Z,98600.11
2019-02-06T06:46:16.825Z,98600.91
2019-02-06T06:48:46.309Z,98602.48
2019-02-06T06:51:15.978Z,98599.16
2019-02-06T06:53:46.323Z,98597.87
2019-02-06T06:56:15.802Z,98603.45
2019-02-06T06:58:45.323Z,98601.22
2019-02-06T07:01:14.805Z,98604.59
2019-02-06T07:03:44.285Z,98604.42
2019-02-06T07:06:13.958Z,98606.34
2019-02-06T07:08:43.413Z,98603.50
2019-02-06T07:11:12.855Z,98607.20
2019-02-06T07:13:42.360Z,98614.70
2019-02-06T07:16:11.840Z,98611.83
2019-02-06T07:18:41.308Z,98613.11
2019-02-06T07:21:10.817Z,98615.20
2019-02-06T07:23:40.316Z,98618.72
2019-02-06T07:26:09.795Z,98610.64
2019-02-06T07:28:39.306Z,98618.00
2019-02-06T07:31:08.804Z,98613.21
2019-02-06T07:33:51.382Z,98576.69
2019-02-06T07:36:20.881Z,98617.59
2019-02-06T07:38:50.353Z,98620.45
2019-02-06T07:41:19.842Z,98620.16
2019-02-06T07:43:49.345Z,98617.62
2019-02-06T07:46:18.831Z,98619.41
2019-02-06T07:48:48.315Z,98618.62
2019-02-06T07:51:17.816Z,98616.22
2019-02-06T07:53:47.300Z,98618.29
2019-02-06T07:56:16.876Z,98617.19
2019-02-06T07:58:46.578Z,98615.58
2019-02-06T08:01:16.064Z,98612.39
2019-02-06T08:03:45.547Z,98610.78
2019-02-06T08:06:15.054Z,98605.85
2019-02-06T08:08:44.543Z,98613.37
2019-02-06T08:11:14.022Z,98615.94
2019-02-06T08:13:43.912Z,98614.00
2019-02-06T08:16:13.405Z,98615.27
2019-02-06T08:18:42.898Z,98611.74
2019-02-06T08:21:12.530Z,98609.64
2019-02-06T08:23:42.007Z,98606.74
2019-02-06T08:26:11.489Z,98603.01
2019-02-06T08:28:41.281Z,98609.08
2019-02-06T08:31:10.716Z,98603.44
2019-02-06T08:33:40.182Z,98597.69
2019-02-06T08:36:09.721Z,98593.30
2019-02-06T08:38:47.415Z,98600.49
2019-02-06T08:41:10.487Z,98594.70
2019-02-06T08:43:39.949Z,98594.34
2019-02-06T08:46:09.427Z,98593.34
2019-02-06T08:48:38.930Z,98585.91
2019-02-06T08:51:08.398Z,98583.12
2019-02-06T08:53:37.890Z,98583.05
2019-02-06T08:56:07.385Z,98584.57
2019-02-06T08:58:37.048Z,98581.61
2019-02-06T09:01:06.524Z,98579.56
2019-02-06T09:03:36.127Z,98583.80
2019-02-06T09:06:05.595Z,98584.51
2019-02-06T09:08:35.071Z,98585.92
2019-02-06T09:11:04.682Z,98585.31
2019-02-06T09:13:34.462Z,98582.73
2019-02-06T09:16:03.925Z,98579.34
2019-02-06T09:18:33.471Z,98588.33
2019-02-06T09:21:03.055Z,98588.84
2019-02-06T09:23:32.517Z,98582.83
2019-02-06T09:26:02.014Z,98583.02
2019-02-06T09:28:31.760Z,98580.40
2019-02-06T09:31:01.241Z,98583.12
2019-02-06T09:33:30.739Z,98586.81
2019-02-06T09:36:00.198Z,98577.33
2019-02-06T09:38:29.689Z,98579.58
2019-02-06T09:40:59.191Z,98580.94
2019-02-06T09:43:29.028Z,98576.23
2019-02-06T09:45:58.492Z,98578.44
2019-02-06T09:48:27.977Z,98577.83
2019-02-06T09:50:57.553Z,98570.69
2019-02-06T09:53:27.049Z,98574.95
2019-02-06T09:55:56.562Z,98571.20
2019-02-06T09:58:26.512Z,98565.61
2019-02-06T10:00:55.979Z,98567.89
2019-02-06T10:03:25.522Z,98567.26
2019-02-06T10:05:54.988Z,98566.35
2019-02-06T10:08:24.482Z,98563.27
2019-02-06T10:10:53.990Z,98563.62
2019-02-06T10:13:23.844Z,98562.92
2019-02-06T10:15:53.407Z,98556.37
2019-02-06T10:18:23.013Z,98549.71
2019-02-06T10:20:52.478Z,98552.19
2019-02-06T10:23:21.940Z,98554.77
2019-02-06T10:25:53.822Z,98546.12
2019-02-06T10:28:24.235Z,98544.08
2019-02-06T10:30:53.977Z,98542.22
2019-02-06T10:33:23.473Z,98537.70
2019-02-06T10:35:52.868Z,98533.49
2019-02-06T10:38:22.340Z,98533.26
2019-02-06T10:40:51.848Z,98531.03
2019-02-06T10:43:31.618Z,98522.91
2019-02-06T10:45:52.897Z,98528.35
2019-02-06T10:48:22.356Z,98525.41
2019-02-06T10:50:51.865Z,98521.27
2019-02-06T10:53:21.367Z,98516.58
2019-02-06T10:55:50.830Z,98512.98
2019-02-06T10:58:20.697Z,98507.42
2019-02-06T11:00:54.114Z,98510.08
2019-02-06T11:03:23.612Z,98505.53
2019-02-06T11:05:53.103Z,98502.70
2019-02-06T11:08:22.669Z,98499.68
2019-02-06T11:10:52.354Z,98489.94
2019-02-06T11:13:21.854Z,98487.91
2019-02-06T11:15:51.358Z,98487.99
2019-02-06T11:18:20.853Z,98492.38
2019-02-06T11:20:50.333Z,98492.13
2019-02-06T11:23:19.846Z,98500.37
2019-02-06T11:25:49.404Z,98493.54
2019-02-06T11:28:18.895Z,98491.00
2019-02-06T11:30:48.402Z,98487.41
2019-02-06T11:33:17.890Z,98490.41
2019-02-06T11:35:47.389Z,98481.72
2019-02-06T11:38:16.908Z,98473.47
2019-02-06T11:40:46.494Z,98472.88
2019-02-06T11:43:16.279Z,98468.70
2019-02-06T11:45:45.828Z,98466.80
2019-02-06T11:48:15.326Z,98455.03
2019-02-06T11:50:44.833Z,98449.64
2019-02-06T11:53:16.733Z,98453.42
2019-02-06T11:55:46.305Z,98445.56
2019-02-06T11:58:15.820Z,98446.50
2019-02-06T12:00:52.896Z,98444.56
2019-02-06T12:03:22.485Z,98448.61
2019-02-06T12:05:52.051Z,98441.75
2019-02-06T12:08:21.673Z,98437.17
2019-02-06T12:10:51.423Z,98436.86
2019-02-06T12:13:20.905Z,98433.20
2019-02-06T12:15:50.503Z,98429.67
2019-02-06T12:18:20.141Z,98423.97
2019-02-06T12:20:49.688Z,98421.19
2019-02-06T12:23:31.604Z,98412.12
2019-02-06T12:25:50.528Z,98412.05
2019-02-06T12:28:20.087Z,98410.45
2019-02-06T12:30:49.581Z,98411.88
2019-02-06T12:33:19.076Z,98411.00
2019-02-06T12:35:48.544Z,98403.05
2019-02-06T12:38:18.062Z,98393.89
2019-02-06T12:40:47.919Z,98398.19
2019-02-06T12:43:17.418Z,98396.58
2019-02-06T12:45:46.922Z,98386.78
2019-02-06T12:48:16.389Z,98389.02
2019-02-06T12:50:45.869Z,98382.38
2019-02-06T12:53:15.483Z,98371.88
2019-02-06T12:55:45.000Z,98372.77
2019-02-06T12:58:14.959Z,98372.72
2019-02-06T13:00:45.564Z,98370.82
2019-02-06T13:03:15.041Z,98366.25
2019-02-06T13:05:44.524Z,98359.41
2019-02-06T13:08:17.131Z,98366.01
2019-02-06T13:10:45.359Z,98363.19
2019-02-06T13:13:15.350Z,98368.25
2019-02-06T13:15:47.185Z,98363.69
2019-02-06T13:18:16.173Z,98364.67
2019-02-06T13:20:45.748Z,98362.41
2019-02-06T13:23:15.342Z,98356.23
2019-02-06T13:25:44.841Z,98356.73
2019-02-06T13:28:14.708Z,98351.60
2019-02-06T13:30:44.215Z,98350.94
2019-02-06T13:33:13.696Z,98348.70
2019-02-06T13:35:43.167Z,98347.67
2019-02-06T13:38:12.720Z,98338.81
2019-02-06T13:40:45.565Z,98339.26
2019-02-06T13:43:13.468Z,98333.47
2019-02-06T13:45:48.882Z,98335.84
2019-02-06T13:48:19.413Z,98334.03
2019-02-06T13:50:48.982Z,98329.73
2019-02-06T13:53:18.465Z,98328.22
2019-02-06T13:55:48.515Z,98325.42
2019-02-06T13:58:20.250Z,98327.06
2019-02-06T14:00:52.291Z,98326.61
2019-02-06T14:03:20.828Z,98327.56
2019-02-06T14:05:50.361Z,98324.29
2019-02-06T14:08:19.836Z,98326.63
2019-02-06T14:10:59.891Z,98321.14
2019-02-06T14:13:20.826Z,98321.40
2019-02-06T14:15:50.457Z,98323.64
2019-02-06T14:18:20.132Z,98324.66
2019-02-06T14:20:50.801Z,98328.39
2019-02-06T14:23:40.103Z,98326.62
2019-02-06T14:26:20.192Z,98328.11
2019-02-06T14:29:15.704Z,98329.91
2019-02-06T14:32:01.560Z,98333.58
2019-02-06T14:34:38.686Z,98330.31
2019-02-06T14:37:15.539Z,98328.41
2019-02-06T14:39:55.408Z,98323.23
2019-02-06T14:43:18.124Z,98326.72
2019-02-06T14:46:40.617Z,98328.70
2019-02-06T14:49:26.321Z,98326.83
2019-02-06T14:52:05.995Z,98323.16
2019-02-06T14:54:54.894Z,98324.78
2019-02-06T14:57:50.308Z,98321.44
2019-02-06T15:00:59.292Z,98324.04
2019-02-06T15:03:51.241Z,98322.11
2019-02-06T15:06:55.591Z,98323.67
2019-02-06T15:09:55.544Z,98325.47
2019-02-06T15:12:49.496Z,98321.44
2019-02-06T15:15:38.924Z,98332.58
2019-02-06T15:18:34.185Z,98327.25
2019-02-06T15:21:20.325Z,98330.27
2019-02-06T15:24:15.666Z,98331.16
2019-02-06T15:27:10.911Z,98333.34
2019-02-06T15:30:11.205Z,98328.81
2019-02-06T15:32:54.529Z,98333.63
2019-02-06T15:35:40.381Z,98334.02
2019-02-06T15:38:38.905Z,98336.75
2019-02-06T15:41:13.064Z,98329.98
2019-02-06T15:44:03.852Z,98340.37
2019-02-06T15:46:43.601Z,98341.83
2019-02-06T15:49:26.709Z,98342.75
2019-02-06T15:52:24.828Z,98345.63
2019-02-06T15:55:14.232Z,98346.31
2019-02-06T15:58:18.663Z,98343.80
2019-02-06T16:01:11.371Z,98353.05
2019-02-06T16:04:31.047Z,98348.26
2019-02-06T16:07:26.740Z,98351.97
2019-02-06T16:10:09.703Z,98356.48
2019-02-06T16:12:55.971Z,98352.41
2019-02-06T16:15:41.568Z,98355.48
2019-02-06T16:18:42.716Z,98360.30
2019-02-06T16:21:22.446Z,98367.71
2019-02-06T16:24:02.616Z,98364.86
2019-02-06T16:26:59.248Z,98365.72
2019-02-06T16:30:00.329Z,98369.62
2019-02-06T16:32:43.328Z,98372.25
2019-02-06T16:35:39.451Z,98370.91
2019-02-06T16:38:31.481Z,98377.91
2019-02-06T16:41:40.845Z,98378.45
2019-02-06T16:44:52.187Z,98378.62
2019-02-06T16:47:28.795Z,98387.37
2019-02-06T16:50:22.370Z,98395.09
2019-02-06T16:53:10.643Z,98380.70
2019-02-06T16:55:53.654Z,98383.59
2019-02-06T16:58:42.934Z,98389.44
2019-02-06T17:01:52.277Z,98394.55
2019-02-06T17:04:45.117Z,98387.52
2019-02-06T17:07:34.000Z,98388.11
2019-02-06T17:10:27.149Z,98392.99
2019-02-06T17:13:10.159Z,98385.81
2019-02-06T17:16:02.215Z,98392.70
2019-02-06T17:18:44.972Z,98398.61
2019-02-06T17:21:30.539Z,98392.84
2019-02-06T17:24:22.529Z,98394.97
2019-02-06T17:27:15.283Z,98396.17
2019-02-06T17:30:19.567Z,98408.72
2019-02-06T17:33:23.678Z,98411.69
2019-02-06T17:36:18.978Z,98417.55
2019-02-06T17:39:01.853Z,98412.36
2019-02-06T17:41:38.969Z,98410.57
2019-02-06T17:44:32.621Z,98418.17
2019-02-06T17:47:27.782Z,98422.42
2019-02-06T17:50:13.611Z,98420.38
2019-02-06T17:53:05.491Z,98422.92
2019-02-06T17:55:35.042Z,98418.27
2019-02-06T17:58:05.021Z,98421.48
2019-02-06T18:00:44.400Z,98431.63
2019-02-06T18:03:16.371Z,98423.91
2019-02-06T18:05:47.641Z,98427.22
2019-02-06T18:08:17.119Z,98430.52
2019-02-06T18:10:46.600Z,98429.19
2019-02-06T18:13:16.936Z,98430.56
2019-02-06T18:15:46.537Z,98426.26
2019-02-06T18:18:16.040Z,98428.14
2019-02-06T18:20:46.153Z,98423.75
2019-02-06T18:23:15.661Z,98430.19
2019-02-06T18:25:45.118Z,98435.73
2019-02-06T18:28:14.603Z,98429.02
2019-02-06T18:30:44.108Z,98430.45
2019-02-06T18:33:14.783Z,98426.50
2019-02-06T18:35:44.291Z,98427.48
2019-02-06T18:38:13.803Z,98430.02
2019-02-06T18:40:44.422Z,98427.56
2019-02-06T18:43:14.255Z,98431.20
2019-02-06T18:45:43.737Z,98428.77
2019-02-06T18:48:13.200Z,98427.09
2019-02-06T18:50:42.736Z,98435.27
2019-02-06T18:53:12.269Z,98428.52
2019-02-06T18:55:41.810Z,98427.12
2019-02-06T18:58:11.393Z,98420.51
2019-02-06T19:00:46.079Z,98422.19
2019-02-06T19:03:22.979Z,98420.35
2019-02-06T19:05:52.525Z,98417.52
2019-02-06T19:08:22.040Z,98418.36
2019-02-06T19:10:51.940Z,98424.47
2019-02-06T19:13:21.624Z,98420.93
2019-02-06T19:15:56.650Z,98422.47
2019-02-06T19:18:23.219Z,98420.19
2019-02-06T19:20:52.784Z,98418.52
2019-02-06T19:23:22.320Z,98419.55
2019-02-06T19:25:51.826Z,98413.12
2019-02-06T19:28:21.366Z,98412.70
2019-02-06T19:30:50.865Z,98416.30
2019-02-06T19:33:20.447Z,98415.30
2019-02-06T19:35:50.059Z,98408.67
2019-02-06T19:38:19.539Z,98406.42
2019-02-06T19:40:49.237Z,98400.05
2019-02-06T19:43:20.436Z,98396.90
2019-02-06T19:45:50.011Z,98395.77
2019-02-06T19:48:22.291Z,98399.02
2019-02-06T19:50:51.303Z,98392.68
2019-02-06T19:53:20.986Z,98385.61
2019-02-06T19:55:50.489Z,98388.37
2019-02-06T19:58:20.057Z,98388.09
2019-02-06T20:00:49.922Z,98384.36
2019-02-06T20:03:19.399Z,98391.97
2019-02-06T20:05:48.900Z,98397.91
2019-02-06T20:08:18.490Z,98394.97
2019-02-06T20:10:51.555Z,98388.70
2019-02-06T20:13:21.103Z,98394.25
2019-02-06T20:15:51.013Z,98387.72
2019-02-06T20:18:20.570Z,98380.67
2019-02-06T20:20:50.065Z,98388.95
2019-02-06T20:23:19.632Z,98382.42
2019-02-06T20:25:49.194Z,98385.02
2019-02-06T20:28:18.751Z,98386.46
2019-02-06T20:30:48.254Z,98378.65
2019-02-06T20:33:18.227Z,98380.04
2019-02-06T20:35:47.754Z,98380.05
2019-02-06T20:38:17.369Z,98374.91
2019-02-06T20:40:46.938Z,98371.75
2019-02-06T20:43:22.159Z,98373.22
2019-02-06T20:45:47.641Z,98372.52
2019-02-06T20:48:17.208Z,98370.11
2019-02-06T20:50:46.689Z,98375.57
2019-02-06T20:53:16.381Z,98371.93
2019-02-06T20:55:45.957Z,98368.10
2019-02-06T20:58:15.421Z,98370.67
2019-02-06T21:00:44.934Z,98368.50
2019-02-06T21:03:14.439Z,98368.26
2019-02-06T21:05:44.303Z,98357.55
2019-02-06T21:08:13.888Z,98367.78
2019-02-06T21:10:43.379Z,98362.39
2019-02-06T21:13:12.879Z,98363.89
2019-02-06T21:15:42.441Z,98363.27
2019-02-06T21:18:11.954Z,98354.66
2019-02-06T21:20:41.904Z,98352.25
2019-02-06T21:23:11.462Z,98354.82
2019-02-06T21:25:41.040Z,98352.78
2019-02-06T21:28:10.588Z,98350.70
2019-02-06T21:30:43.089Z,98351.83
2019-02-06T21:33:12.602Z,98346.48
2019-02-06T21:35:42.459Z,98341.88
2019-02-06T21:38:12.042Z,98336.66
2019-02-06T21:40:41.503Z,98339.44
2019-02-06T21:43:10.984Z,98335.55
2019-02-06T21:45:40.497Z,98331.34
2019-02-06T21:48:09.963Z,98330.45
2019-02-06T21:50:39.733Z,98327.86
2019-02-06T21:53:09.229Z,98327.08
2019-02-06T21:55:38.704Z,98330.63
2019-02-06T21:58:08.170Z,98322.36
2019-02-06T22:00:42.986Z,98318.66
2019-02-06T22:03:12.460Z,98310.93
2019-02-06T22:05:41.969Z,98317.69
2019-02-06T22:08:11.437Z,98311.76
2019-02-06T22:10:40.914Z,98319.05
2019-02-06T22:13:10.485Z,98317.31
2019-02-06T22:15:39.984Z,98315.94
2019-02-06T22:18:09.943Z,98308.73
2019-02-06T22:20:39.496Z,98317.41
2019-02-06T22:23:08.970Z,98315.36
2019-02-06T22:25:38.459Z,98318.57
2019-02-06T22:28:07.920Z,98318.02
2019-02-06T22:30:37.426Z,98312.62
2019-02-06T22:33:07.280Z,98310.14
2019-02-06T22:35:36.815Z,98309.55
2019-02-06T22:38:06.280Z,98317.40
2019-02-06T22:40:35.766Z,98310.42
2019-02-06T22:43:05.271Z,98306.40
2019-02-06T22:45:34.749Z,98305.86
2019-02-06T22:48:04.808Z,98309.23
2019-02-06T22:50:34.304Z,98300.34
2019-02-06T22:53:03.792Z,98296.38
2019-02-06T22:55:33.343Z,98288.36
2019-02-06T22:58:02.856Z,98294.22
2019-02-06T23:01:06.995Z,98290.98
2019-02-06T23:03:38.507Z,98292.50
2019-02-06T23:06:08.191Z,98284.48
2019-02-06T23:08:37.682Z,98287.74
2019-02-06T23:11:07.294Z,98282.98
2019-02-06T23:13:36.854Z,98283.59
2019-02-06T23:16:06.600Z,98286.79
2019-02-06T23:18:36.099Z,98282.25
2019-02-06T23:21:05.577Z,98280.66
2019-02-06T23:23:35.456Z,98271.12
2019-02-06T23:26:04.973Z,98269.07
2019-02-06T23:28:34.486Z,98268.67
2019-02-06T23:31:03.967Z,98268.52
2019-02-06T23:33:33.571Z,98262.80
2019-02-06T23:36:03.158Z,98266.36
2019-02-06T23:38:33.019Z,98263.52
2019-02-06T23:41:02.524Z,98264.84
2019-02-06T23:43:32.007Z,98262.28
2019-02-06T23:46:01.659Z,98261.64
2019-02-06T23:48:31.162Z,98259.56
2019-02-06T23:51:00.639Z,98257.22
2019-02-06T23:53:30.320Z,98258.17
2019-02-06T23:55:59.860Z,98255.80
2019-02-06T23:58:29.382Z,98247.30
